aviador You're here:

OIBV Decoded Metar

LAVAN ISLAND in IRAN
Report Time2017-08-22 10:00:00
UTC Time2017-08-22 11:15:31
Flight Rules Old
Wind160° at 08 kt
W.Decomp.*RWY 11: 5.2 kt HW 6.0 kt RCW
W.Rank160° ranks 22
Current wind is below 160° avg. (8.2)
Visibility5000 m
Phenomena:Haze
Clouds:N/A
Expected CloudBase > 3,600 ft AGL from Temp-Dew spread
CeilingNone
Temp37°C (ISA +22)
Dew Point28°C (60% RH)
Heat Index51.4°C
QNH0997 hPa
Density Alt3,612 ft
Elevation76 ft
Report Wrong Elevation
Raw Report
METAR OIBV 221000Z 16008KT 5000 HZ NSC 37/28 Q0997=

Extra information for OIBV:More info

Metar Taf Metar & Taf Last 4 Metars F.Rules Stats Wind Profile Meteogram Temp Stats Airport Information Weather charts Add Link Nearby VenuesMetar ALERT Operation Metar Decoded Social comments